sensor_id;sensor_type;location;lat;lon;timestamp;pressure;altitude;pressure_sealevel;temperature;humidity
7966;BME280;4028;43.272;26.932;2023-02-16T00:01:51;100512.53;;;2.28;100.00
7966;BME280;4028;43.272;26.932;2023-02-16T00:04:28;100524.00;;;2.24;100.00
7966;BME280;4028;43.272;26.932;2023-02-16T00:06:54;100508.69;;;2.15;100.00
7966;BME280;4028;43.272;26.932;2023-02-16T00:09:21;100508.47;;;2.21;100.00
7966;BME280;4028;43.272;26.932;2023-02-16T00:11:48;100513.38;;;2.29;100.00
7966;BME280;4028;43.272;26.932;2023-02-16T00:14:34;100502.91;;;2.30;100.00
7966;BME280;4028;43.272;26.932;2023-02-16T00:17:00;100514.88;;;2.36;100.00
7966;BME280;4028;43.272;26.932;2023-02-16T00:19:33;100493.19;;;2.11;100.00
7966;BME280;4028;43.272;26.932;2023-02-16T00:21:59;100519.84;;;2.19;100.00
7966;BME280;4028;43.272;26.932;2023-02-16T00:24:27;100527.19;;;2.09;100.00
7966;BME280;4028;43.272;26.932;2023-02-16T00:26:53;100515.22;;;2.03;100.00
7966;BME280;4028;43.272;26.932;2023-02-16T00:29:27;100517.72;;;2.06;100.00
7966;BME280;4028;43.272;26.932;2023-02-16T00:31:53;100509.59;;;2.14;100.00
7966;BME280;4028;43.272;26.932;2023-02-16T00:34:40;100502.38;;;2.21;100.00
7966;BME280;4028;43.272;26.932;2023-02-16T00:37:11;100513.28;;;2.08;100.00
7966;BME280;4028;43.272;26.932;2023-02-16T00:39:38;100517.78;;;2.05;100.00
7966;BME280;4028;43.272;26.932;2023-02-16T00:42:09;100523.69;;;2.10;100.00
7966;BME280;4028;43.272;26.932;2023-02-16T00:44:44;100518.72;;;2.02;100.00
7966;BME280;4028;43.272;26.932;2023-02-16T00:49:39;100516.41;;;1.95;100.00
7966;BME280;4028;43.272;26.932;2023-02-16T00:54:53;100517.03;;;2.01;100.00
7966;BME280;4028;43.272;26.932;2023-02-16T00:57:18;100512.81;;;1.97;100.00
7966;BME280;4028;43.272;26.932;2023-02-16T00:59:45;100512.25;;;1.89;100.00
7966;BME280;4028;43.272;26.932;2023-02-16T01:02:13;100516.34;;;1.96;100.00
7966;BME280;4028;43.272;26.932;2023-02-16T01:04:39;100512.06;;;1.94;100.00
7966;BME280;4028;43.272;26.932;2023-02-16T01:07:12;100514.66;;;1.95;100.00
7966;BME280;4028;43.272;26.932;2023-02-16T01:09:57;100510.06;;;2.02;100.00
7966;BME280;4028;43.272;26.932;2023-02-16T01:12:41;100504.31;;;1.92;100.00
7966;BME280;4028;43.272;26.932;2023-02-16T01:15:17;100506.53;;;2.03;100.00
7966;BME280;4028;43.272;26.932;2023-02-16T01:17:46;100502.47;;;1.94;100.00
7966;BME280;4028;43.272;26.932;2023-02-16T01:20:20;100489.16;;;1.78;100.00
7966;BME280;4028;43.272;26.932;2023-02-16T01:22:46;100471.31;;;1.66;100.00
7966;BME280;4028;43.272;26.932;2023-02-16T01:25:13;100497.25;;;1.71;100.00
7966;BME280;4028;43.272;26.932;2023-02-16T01:27:39;100503.56;;;1.89;100.00
7966;BME280;4028;43.272;26.932;2023-02-16T01:30:09;100502.88;;;1.83;100.00
7966;BME280;4028;43.272;26.932;2023-02-16T01:32:35;100474.28;;;1.80;100.00
7966;BME280;4028;43.272;26.932;2023-02-16T01:35:01;100498.56;;;1.82;100.00
7966;BME280;4028;43.272;26.932;2023-02-16T01:37:26;100491.88;;;1.75;100.00
7966;BME280;4028;43.272;26.932;2023-02-16T01:39:52;100454.00;;;1.40;100.00
7966;BME280;4028;43.272;26.932;2023-02-16T01:42:37;100497.25;;;1.71;100.00
7966;BME280;4028;43.272;26.932;2023-02-16T01:45:10;100493.25;;;1.86;100.00
7966;BME280;4028;43.272;26.932;2023-02-16T01:47:50;100493.81;;;1.70;100.00
7966;BME280;4028;43.272;26.932;2023-02-16T01:50:33;100496.56;;;1.66;100.00
7966;BME280;4028;43.272;26.932;2023-02-16T01:53:41;100490.75;;;1.58;100.00
7966;BME280;4028;43.272;26.932;2023-02-16T01:56:28;100494.34;;;1.55;100.00
7966;BME280;4028;43.272;26.932;2023-02-16T01:58:59;100496.63;;;1.64;100.00
7966;BME280;4028;43.272;26.932;2023-02-16T02:03:54;100488.59;;;1.45;100.00
7966;BME280;4028;43.272;26.932;2023-02-16T02:06:38;100491.34;;;1.66;100.00
7966;BME280;4028;43.272;26.932;2023-02-16T02:09:54;100491.59;;;1.60;100.00
7966;BME280;4028;43.272;26.932;2023-02-16T02:15:04;100471.97;;;1.48;100.00
7966;BME280;4028;43.272;26.932;2023-02-16T02:17:31;100484.31;;;1.43;100.00
7966;BME280;4028;43.272;26.932;2023-02-16T02:20:09;100483.59;;;1.39;100.00
7966;BME280;4028;43.272;26.932;2023-02-16T02:28:31;100482.69;;;1.40;100.00
7966;BME280;4028;43.272;26.932;2023-02-16T02:31:09;100477.53;;;1.39;100.00
7966;BME280;4028;43.272;26.932;2023-02-16T02:44:34;100474.28;;;1.32;100.00
7966;BME280;4028;43.272;26.932;2023-02-16T02:47:02;100458.09;;;1.22;100.00
7966;BME280;4028;43.272;26.932;2023-02-16T02:49:28;100474.28;;;1.32;100.00
7966;BME280;4028;43.272;26.932;2023-02-16T02:51:53;100469.03;;;1.34;100.00
7966;BME280;4028;43.272;26.932;2023-02-16T02:54:25;100463.25;;;1.24;100.00
7966;BME280;4028;43.272;26.932;2023-02-16T03:03:39;100475.81;;;1.13;100.00
7966;BME280;4028;43.272;26.932;2023-02-16T03:06:12;100472.69;;;1.01;100.00
7966;BME280;4028;43.272;26.932;2023-02-16T03:08:42;100477.34;;;0.93;100.00
7966;BME280;4028;43.272;26.932;2023-02-16T03:11:21;100483.75;;;0.83;100.00
7966;BME280;4028;43.272;26.932;2023-02-16T03:17:00;100480.63;;;0.98;100.00
7966;BME280;4028;43.272;26.932;2023-02-16T03:19:47;100486.75;;;0.97;100.00
7966;BME280;4028;43.272;26.932;2023-02-16T03:22:33;100488.53;;;0.95;100.00
7966;BME280;4028;43.272;26.932;2023-02-16T03:25:19;100492.00;;;0.96;100.00
7966;BME280;4028;43.272;26.932;2023-02-16T03:28:06;100463.91;;;0.79;100.00
7966;BME280;4028;43.272;26.932;2023-02-16T03:30:51;100493.97;;;0.89;100.00
7966;BME280;4028;43.272;26.932;2023-02-16T03:33:19;100503.75;;;0.83;100.00
7966;BME280;4028;43.272;26.932;2023-02-16T03:35:45;100472.13;;;0.67;100.00
7966;BME280;4028;43.272;26.932;2023-02-16T03:38:10;100493.25;;;0.84;100.00
7966;BME280;4028;43.272;26.932;2023-02-16T03:40:37;100489.66;;;0.88;100.00
7966;BME280;4028;43.272;26.932;2023-02-16T03:43:06;100492.50;;;1.07;100.00
7966;BME280;4028;43.272;26.932;2023-02-16T03:45:33;100497.84;;;1.04;100.00
7966;BME280;4028;43.272;26.932;2023-02-16T03:48:00;100491.56;;;1.10;100.00
7966;BME280;4028;43.272;26.932;2023-02-16T03:50:26;100490.09;;;1.01;100.00
7966;BME280;4028;43.272;26.932;2023-02-16T03:52:52;100487.06;;;0.88;100.00
7966;BME280;4028;43.272;26.932;2023-02-16T03:55:18;100471.09;;;0.71;100.00
7966;BME280;4028;43.272;26.932;2023-02-16T03:57:43;100489.25;;;0.74;100.00
7966;BME280;4028;43.272;26.932;2023-02-16T04:00:10;100485.66;;;0.78;100.00
7966;BME280;4028;43.272;26.932;2023-02-16T04:02:35;100489.16;;;0.77;100.00
7966;BME280;4028;43.272;26.932;2023-02-16T04:05:01;100490.00;;;0.77;100.00
7966;BME280;4028;43.272;26.932;2023-02-16T04:07:26;100485.69;;;0.76;100.00
7966;BME280;4028;43.272;26.932;2023-02-16T04:09:52;100485.84;;;0.72;100.00
7966;BME280;4028;43.272;26.932;2023-02-16T04:12:17;100479.06;;;0.66;100.00
7966;BME280;4028;43.272;26.932;2023-02-16T04:15:09;100481.63;;;0.68;100.00
7966;BME280;4028;43.272;26.932;2023-02-16T04:17:35;100473.13;;;0.63;100.00
7966;BME280;4028;43.272;26.932;2023-02-16T04:20:02;100487.59;;;0.71;100.00
7966;BME280;4028;43.272;26.932;2023-02-16T04:22:27;100487.75;;;0.67;100.00
7966;BME280;4028;43.272;26.932;2023-02-16T04:24:53;100485.94;;;0.69;100.00
7966;BME280;4028;43.272;26.932;2023-02-16T04:27:18;100482.72;;;0.61;100.00
7966;BME280;4028;43.272;26.932;2023-02-16T04:29:44;100492.75;;;0.73;100.00
7966;BME280;4028;43.272;26.932;2023-02-16T04:32:09;100492.78;;;0.71;100.00
7966;BME280;4028;43.272;26.932;2023-02-16T04:34:35;100484.75;;;0.51;100.00
7966;BME280;4028;43.272;26.932;2023-02-16T04:37:00;100491.56;;;0.57;100.00
7966;BME280;4028;43.272;26.932;2023-02-16T04:39:27;100494.09;;;0.58;100.00
7966;BME280;4028;43.272;26.932;2023-02-16T04:41:52;100488.03;;;0.58;100.00
7966;BME280;4028;43.272;26.932;2023-02-16T04:44:18;100486.22;;;0.60;100.00
7966;BME280;4028;43.272;26.932;2023-02-16T04:46:43;100490.72;;;0.55;100.00
7966;BME280;4028;43.272;26.932;2023-02-16T04:49:09;100477.97;;;0.45;100.00
7966;BME280;4028;43.272;26.932;2023-02-16T04:51:34;100494.16;;;0.57;100.00
7966;BME280;4028;43.272;26.932;2023-02-16T04:54:00;100487.56;;;0.45;100.00
7966;BME280;4028;43.272;26.932;2023-02-16T04:56:25;100497.75;;;0.52;100.00
7966;BME280;4028;43.272;26.932;2023-02-16T04:58:52;100495.16;;;0.52;100.00
7966;BME280;4028;43.272;26.932;2023-02-16T05:01:19;100503.75;;;0.55;100.00
7966;BME280;4028;43.272;26.932;2023-02-16T05:03:45;100499.53;;;0.50;100.00
7966;BME280;4028;43.272;26.932;2023-02-16T05:06:11;100502.25;;;0.47;100.00
7966;BME280;4028;43.272;26.932;2023-02-16T05:08:36;100499.84;;;0.40;100.00
7966;BME280;4028;43.272;26.932;2023-02-16T05:11:02;100504.03;;;0.45;100.00
7966;BME280;4028;43.272;26.932;2023-02-16T05:13:45;100510.66;;;0.28;100.00
7966;BME280;4028;43.272;26.932;2023-02-16T05:16:29;100519.31;;;0.28;100.00
7966;BME280;4028;43.272;26.932;2023-02-16T05:18:55;100518.34;;;0.32;100.00
7966;BME280;4028;43.272;26.932;2023-02-16T05:21:20;100517.50;;;0.30;100.00
7966;BME280;4028;43.272;26.932;2023-02-16T05:23:55;100526.00;;;0.37;100.00
7966;BME280;4028;43.272;26.932;2023-02-16T05:26:21;100528.06;;;0.25;100.00
7966;BME280;4028;43.272;26.932;2023-02-16T05:28:46;100522.63;;;0.33;100.00
7966;BME280;4028;43.272;26.932;2023-02-16T05:31:12;100531.25;;;0.35;100.00
7966;BME280;4028;43.272;26.932;2023-02-16T05:33:37;100535.66;;;0.33;100.00
7966;BME280;4028;43.272;26.932;2023-02-16T05:36:03;100534.69;;;0.37;100.00
7966;BME280;4028;43.272;26.932;2023-02-16T05:38:28;100532.41;;;0.25;100.00
7966;BME280;4028;43.272;26.932;2023-02-16T05:40:54;100545.09;;;0.37;100.00
7966;BME280;4028;43.272;26.932;2023-02-16T05:43:19;100537.00;;;0.46;100.00
7966;BME280;4028;43.272;26.932;2023-02-16T05:45:44;100537.75;;;0.50;100.00
7966;BME280;4028;43.272;26.932;2023-02-16T05:48:10;100542.16;;;0.48;100.00
7966;BME280;4028;43.272;26.932;2023-02-16T05:50:35;100535.16;;;0.50;100.00
7966;BME280;4028;43.272;26.932;2023-02-16T05:53:01;100539.63;;;0.46;100.00
7966;BME280;4028;43.272;26.932;2023-02-16T05:55:26;100549.84;;;0.52;100.00
7966;BME280;4028;43.272;26.932;2023-02-16T05:57:52;100544.50;;;0.57;100.00
7966;BME280;4028;43.272;26.932;2023-02-16T06:00:17;100547.63;;;0.68;100.00
7966;BME280;4028;43.272;26.932;2023-02-16T06:02:43;100539.09;;;0.63;100.00
7966;BME280;4028;43.272;26.932;2023-02-16T06:05:08;100548.34;;;0.73;100.00
7966;BME280;4028;43.272;26.932;2023-02-16T06:07:34;100545.59;;;0.76;100.00
7966;BME280;4028;43.272;26.932;2023-02-16T06:09:59;100546.38;;;0.80;100.00
7966;BME280;4028;43.272;26.932;2023-02-16T06:12:25;100553.19;;;0.84;100.00
7966;BME280;4028;43.272;26.932;2023-02-16T06:14:50;100552.25;;;0.87;100.00
7966;BME280;4028;43.272;26.932;2023-02-16T06:17:16;100550.66;;;0.83;100.00
7966;BME280;4028;43.272;26.932;2023-02-16T06:19:41;100561.09;;;0.81;100.00
7966;BME280;4028;43.272;26.932;2023-02-16T06:22:07;100558.28;;;0.89;100.00
7966;BME280;4028;43.272;26.932;2023-02-16T06:24:32;100554.63;;;0.94;100.00
7966;BME280;4028;43.272;26.932;2023-02-16T06:26:57;100556.22;;;0.98;100.00
7966;BME280;4028;43.272;26.932;2023-02-16T06:29:23;100551.81;;;1.00;100.00
7966;BME280;4028;43.272;26.932;2023-02-16T06:31:48;100544.81;;;1.02;100.00
7966;BME280;4028;43.272;26.932;2023-02-16T06:34:14;100560.66;;;1.23;100.00
7966;BME280;4028;43.272;26.932;2023-02-16T06:36:39;100562.44;;;1.21;100.00
7966;BME280;4028;43.272;26.932;2023-02-16T06:39:05;100558.84;;;1.25;100.00
7966;BME280;4028;43.272;26.932;2023-02-16T06:41:30;100560.13;;;1.38;100.00
7966;BME280;4028;43.272;26.932;2023-02-16T06:44:00;100559.09;;;1.44;100.00
7966;BME280;4028;43.272;26.932;2023-02-16T06:46:26;100555.44;;;1.48;100.00
7966;BME280;4028;43.272;26.932;2023-02-16T06:48:52;100557.59;;;1.62;100.00
7966;BME280;4028;43.272;26.932;2023-02-16T06:51:18;100544.78;;;1.55;100.00
7966;BME280;4028;43.272;26.932;2023-02-16T06:53:45;100561.69;;;1.69;100.00
7966;BME280;4028;43.272;26.932;2023-02-16T06:56:10;100554.00;;;1.89;100.00
7966;BME280;4028;43.272;26.932;2023-02-16T06:58:36;100551.38;;;2.14;100.00
7966;BME280;4028;43.272;26.932;2023-02-16T07:01:01;100557.66;;;2.55;100.00
7966;BME280;4028;43.272;26.932;2023-02-16T07:03:26;100542.34;;;3.12;100.00
7966;BME280;4028;43.272;26.932;2023-02-16T07:05:52;100543.66;;;3.64;100.00
7966;BME280;4028;43.272;26.932;2023-02-16T07:08:17;100541.13;;;4.59;100.00
7966;BME280;4028;43.272;26.932;2023-02-16T07:10:44;100538.59;;;5.64;100.00
7966;BME280;4028;43.272;26.932;2023-02-16T07:13:10;100538.22;;;6.54;100.00
7966;BME280;4028;43.272;26.932;2023-02-16T07:15:35;100539.41;;;7.26;100.00
7966;BME280;4028;43.272;26.932;2023-02-16T07:18:01;100531.19;;;8.48;100.00
7966;BME280;4028;43.272;26.932;2023-02-16T07:20:26;100529.78;;;9.50;85.58
7966;BME280;4028;43.272;26.932;2023-02-16T07:22:52;100538.47;;;9.65;78.64
7966;BME280;4028;43.272;26.932;2023-02-16T07:25:18;100525.84;;;10.58;71.66
7966;BME280;4028;43.272;26.932;2023-02-16T07:27:43;100527.78;;;11.04;64.94
7966;BME280;4028;43.272;26.932;2023-02-16T07:30:09;100520.88;;;11.25;61.66
7966;BME280;4028;43.272;26.932;2023-02-16T07:32:36;100525.16;;;11.39;60.09
7966;BME280;4028;43.272;26.932;2023-02-16T07:35:02;100523.69;;;11.70;58.76
7966;BME280;4028;43.272;26.932;2023-02-16T07:37:28;100520.59;;;11.87;56.71
7966;BME280;4028;43.272;26.932;2023-02-16T07:39:53;100517.34;;;11.95;56.25
7966;BME280;4028;43.272;26.932;2023-02-16T07:42:19;100492.53;;;11.96;55.89
7966;BME280;4028;43.272;26.932;2023-02-16T07:44:45;100519.78;;;12.20;54.51
7966;BME280;4028;43.272;26.932;2023-02-16T07:47:11;100512.66;;;12.32;53.45
7966;BME280;4028;43.272;26.932;2023-02-16T07:49:37;100511.41;;;12.70;53.04
7966;BME280;4028;43.272;26.932;2023-02-16T07:52:03;100511.38;;;13.13;50.75
7966;BME280;4028;43.272;26.932;2023-02-16T07:54:30;100513.28;;;13.55;50.13
7966;BME280;4028;43.272;26.932;2023-02-16T07:56:56;100514.06;;;13.87;48.18
7966;BME280;4028;43.272;26.932;2023-02-16T07:59:21;100510.75;;;14.04;46.95
7966;BME280;4028;43.272;26.932;2023-02-16T08:01:47;100509.44;;;14.20;46.72
7966;BME280;4028;43.272;26.932;2023-02-16T08:04:13;100512.28;;;14.28;46.09
7966;BME280;4028;43.272;26.932;2023-02-16T08:06:38;100508.81;;;14.47;45.69
7966;BME280;4028;43.272;26.932;2023-02-16T08:09:04;100508.94;;;14.86;44.64
7966;BME280;4028;43.272;26.932;2023-02-16T08:11:30;100508.13;;;14.85;44.52
7966;BME280;4028;43.272;26.932;2023-02-16T08:13:58;100501.38;;;15.20;43.69
7966;BME280;4028;43.272;26.932;2023-02-16T08:16:26;100508.69;;;15.37;42.90
7966;BME280;4028;43.272;26.932;2023-02-16T08:18:54;100506.53;;;15.50;42.58
7966;BME280;4028;43.272;26.932;2023-02-16T08:21:22;100511.03;;;15.79;41.69
7966;BME280;4028;43.272;26.932;2023-02-16T08:23:56;100498.91;;;15.94;40.79
7966;BME280;4028;43.272;26.932;2023-02-16T08:26:27;100505.06;;;16.04;40.72
7966;BME280;4028;43.272;26.932;2023-02-16T08:28:55;100501.78;;;16.10;40.72
7966;BME280;4028;43.272;26.932;2023-02-16T08:31:24;100496.56;;;16.19;40.50
7966;BME280;4028;43.272;26.932;2023-02-16T08:33:54;100506.53;;;16.54;40.11
7966;BME280;4028;43.272;26.932;2023-02-16T08:36:31;100494.94;;;16.08;40.09
7966;BME280;4028;43.272;26.932;2023-02-16T08:38:58;100497.59;;;16.08;40.46
7966;BME280;4028;43.272;26.932;2023-02-16T08:41:29;100507.72;;;16.04;40.98
7966;BME280;4028;43.272;26.932;2023-02-16T08:43:56;100500.44;;;15.97;40.51
7966;BME280;4028;43.272;26.932;2023-02-16T08:46:21;100495.47;;;16.11;40.65
7966;BME280;4028;43.272;26.932;2023-02-16T08:48:47;100498.25;;;15.82;40.56
7966;BME280;4028;43.272;26.932;2023-02-16T08:51:18;100505.28;;;15.35;41.89
7966;BME280;4028;43.272;26.932;2023-02-16T08:53:44;100505.72;;;15.50;41.68
7966;BME280;4028;43.272;26.932;2023-02-16T08:56:11;100499.28;;;15.04;42.15
7966;BME280;4028;43.272;26.932;2023-02-16T08:58:37;100506.41;;;14.74;43.13
7966;BME280;4028;43.272;26.932;2023-02-16T09:01:04;100507.34;;;14.54;43.44
7966;BME280;4028;43.272;26.932;2023-02-16T09:03:35;100509.56;;;14.18;44.15
7966;BME280;4028;43.272;26.932;2023-02-16T09:06:04;100510.13;;;13.91;44.43
7966;BME280;4028;43.272;26.932;2023-02-16T09:08:30;100500.72;;;14.08;44.61
7966;BME280;4028;43.272;26.932;2023-02-16T09:11:04;100478.91;;;14.24;44.20
7966;BME280;4028;43.272;26.932;2023-02-16T09:13:32;100502.47;;;14.28;44.20
7966;BME280;4028;43.272;26.932;2023-02-16T09:16:03;100508.09;;;14.35;44.61
7966;BME280;4028;43.272;26.932;2023-02-16T09:18:29;100504.16;;;14.29;44.32
7966;BME280;4028;43.272;26.932;2023-02-16T09:21:01;100503.13;;;14.51;44.58
7966;BME280;4028;43.272;26.932;2023-02-16T09:23:27;100500.88;;;14.56;44.35
7966;BME280;4028;43.272;26.932;2023-02-16T09:25:53;100500.75;;;14.58;44.05
7966;BME280;4028;43.272;26.932;2023-02-16T09:28:18;100491.28;;;14.85;43.52
7966;BME280;4028;43.272;26.932;2023-02-16T09:30:45;100490.56;;;14.92;43.62
7966;BME280;4028;43.272;26.932;2023-02-16T09:33:10;100484.13;;;15.04;43.83
7966;BME280;4028;43.272;26.932;2023-02-16T09:35:38;100483.44;;;15.22;42.79
7966;BME280;4028;43.272;26.932;2023-02-16T09:38:03;100493.25;;;15.31;42.46
7966;BME280;4028;43.272;26.932;2023-02-16T09:40:29;100485.66;;;15.46;42.22
7966;BME280;4028;43.272;26.932;2023-02-16T09:43:59;100483.47;;;15.88;41.91
7966;BME280;4028;43.272;26.932;2023-02-16T09:45:53;100475.44;;;15.98;41.30
7966;BME280;4028;43.272;26.932;2023-02-16T09:50:58;100464.06;;;15.96;41.21
7966;BME280;4028;43.272;26.932;2023-02-16T09:53:35;100469.38;;;15.96;41.43
7966;BME280;4028;43.272;26.932;2023-02-16T09:56:31;100468.13;;;16.00;41.16
7966;BME280;4028;43.272;26.932;2023-02-16T10:05:16;100461.09;;;16.26;40.06
7966;BME280;4028;43.272;26.932;2023-02-16T10:07:53;100455.03;;;16.34;39.88
7966;BME280;4028;43.272;26.932;2023-02-16T10:10:23;100449.69;;;16.34;39.98
7966;BME280;4028;43.272;26.932;2023-02-16T10:12:55;100460.66;;;16.58;39.96
7966;BME280;4028;43.272;26.932;2023-02-16T10:15:25;100435.84;;;16.66;39.73
7966;BME280;4028;43.272;26.932;2023-02-16T10:17:58;100448.25;;;16.57;39.35
7966;BME280;4028;43.272;26.932;2023-02-16T10:25:33;100445.09;;;16.72;39.39
7966;BME280;4028;43.272;26.932;2023-02-16T10:28:15;100441.19;;;16.48;39.66
7966;BME280;4028;43.272;26.932;2023-02-16T10:30:47;100411.25;;;16.17;40.08
7966;BME280;4028;43.272;26.932;2023-02-16T10:36:02;100430.22;;;17.05;39.50
7966;BME280;4028;43.272;26.932;2023-02-16T10:38:44;100429.06;;;17.07;39.29
7966;BME280;4028;43.272;26.932;2023-02-16T10:43:53;100427.94;;;17.10;39.10
7966;BME280;4028;43.272;26.932;2023-02-16T10:46:24;100423.50;;;16.83;39.35
7966;BME280;4028;43.272;26.932;2023-02-16T10:48:53;100417.59;;;16.97;39.64
7966;BME280;4028;43.272;26.932;2023-02-16T10:51:20;100414.69;;;17.08;39.00
7966;BME280;4028;43.272;26.932;2023-02-16T10:54:03;100413.94;;;16.98;39.25
7966;BME280;4028;43.272;26.932;2023-02-16T10:59:46;100416.72;;;17.32;38.14
7966;BME280;4028;43.272;26.932;2023-02-16T11:02:34;100410.16;;;17.27;38.73
7966;BME280;4028;43.272;26.932;2023-02-16T11:05:01;100402.75;;;17.21;39.10
7966;BME280;4028;43.272;26.932;2023-02-16T11:07:30;100370.88;;;17.27;38.45
7966;BME280;4028;43.272;26.932;2023-02-16T11:09:58;100397.03;;;17.15;38.52
7966;BME280;4028;43.272;26.932;2023-02-16T11:12:37;100383.59;;;16.36;39.83
7966;BME280;4028;43.272;26.932;2023-02-16T11:15:18;100386.03;;;15.18;42.20
7966;BME280;4028;43.272;26.932;2023-02-16T11:18:07;100389.47;;;14.12;44.95
7966;BME280;4028;43.272;26.932;2023-02-16T11:28:38;100381.69;;;13.07;48.86
7966;BME280;4028;43.272;26.932;2023-02-16T11:31:10;100377.34;;;12.85;49.85
7966;BME280;4028;43.272;26.932;2023-02-16T11:33:37;100369.59;;;12.61;50.68
7966;BME280;4028;43.272;26.932;2023-02-16T11:36:17;100375.81;;;13.24;50.96
7966;BME280;4028;43.272;26.932;2023-02-16T11:39:27;100362.09;;;13.50;48.14
7966;BME280;4028;43.272;26.932;2023-02-16T11:46:56;100359.69;;;12.84;50.03
7966;BME280;4028;43.272;26.932;2023-02-16T11:52:00;100330.88;;;14.02;47.49
7966;BME280;4028;43.272;26.932;2023-02-16T11:54:48;100327.47;;;14.50;43.47
7966;BME280;4028;43.272;26.932;2023-02-16T11:57:25;100330.69;;;14.73;41.95
7966;BME280;4028;43.272;26.932;2023-02-16T11:59:53;100321.75;;;14.64;40.14
7966;BME280;4028;43.272;26.932;2023-02-16T12:07:32;100309.75;;;15.44;35.89
7966;BME280;4028;43.272;26.932;2023-02-16T12:13:17;100296.63;;;17.29;31.54
7966;BME280;4028;43.272;26.932;2023-02-16T12:15:52;100290.34;;;17.73;30.43
7966;BME280;4028;43.272;26.932;2023-02-16T12:24:18;100285.63;;;17.66;29.90
7966;BME280;4028;43.272;26.932;2023-02-16T12:29:28;100270.63;;;16.79;30.54
7966;BME280;4028;43.272;26.932;2023-02-16T12:35:24;100268.41;;;15.58;31.26
7966;BME280;4028;43.272;26.932;2023-02-16T12:45:55;100253.22;;;15.68;31.51
7966;BME280;4028;43.272;26.932;2023-02-16T12:51:02;100246.22;;;15.85;31.45
7966;BME280;4028;43.272;26.932;2023-02-16T12:53:42;100255.75;;;16.05;30.76
7966;BME280;4028;43.272;26.932;2023-02-16T12:56:25;100255.25;;;16.20;30.68
7966;BME280;4028;43.272;26.932;2023-02-16T12:58:59;100255.22;;;15.84;31.01
7966;BME280;4028;43.272;26.932;2023-02-16T13:01:30;100244.94;;;15.89;31.44
7966;BME280;4028;43.272;26.932;2023-02-16T13:06:43;100250.66;;;16.12;31.58
7966;BME280;4028;43.272;26.932;2023-02-16T13:14:38;100241.16;;;16.71;30.51
7966;BME280;4028;43.272;26.932;2023-02-16T13:17:14;100232.88;;;16.82;30.68
7966;BME280;4028;43.272;26.932;2023-02-16T13:19:43;100234.94;;;16.71;30.42
7966;BME280;4028;43.272;26.932;2023-02-16T13:25:38;100227.00;;;15.99;31.47
7966;BME280;4028;43.272;26.932;2023-02-16T13:30:57;100212.94;;;15.34;31.66
7966;BME280;4028;43.272;26.932;2023-02-16T13:44:11;100206.81;;;13.72;33.98
7966;BME280;4028;43.272;26.932;2023-02-16T13:46:45;100202.31;;;13.72;34.13
7966;BME280;4028;43.272;26.932;2023-02-16T13:52:03;100209.69;;;13.19;34.50
7966;BME280;4028;43.272;26.932;2023-02-16T13:54:40;100202.81;;;13.37;34.35
7966;BME280;4028;43.272;26.932;2023-02-16T13:57:12;100205.47;;;13.37;34.20
7966;BME280;4028;43.272;26.932;2023-02-16T14:02:10;100205.19;;;13.10;34.70
7966;BME280;4028;43.272;26.932;2023-02-16T14:09:31;100199.81;;;12.90;34.93
7966;BME280;4028;43.272;26.932;2023-02-16T14:12:02;100199.81;;;12.90;34.94
7966;BME280;4028;43.272;26.932;2023-02-16T14:19:57;100186.78;;;12.57;35.75
7966;BME280;4028;43.272;26.932;2023-02-16T14:22:31;100195.38;;;12.70;35.50
7966;BME280;4028;43.272;26.932;2023-02-16T14:25:01;100164.44;;;12.59;35.08
7966;BME280;4028;43.272;26.932;2023-02-16T14:27:44;100185.69;;;12.59;34.99
7966;BME280;4028;43.272;26.932;2023-02-16T14:38:20;100173.19;;;12.50;35.74
7966;BME280;4028;43.272;26.932;2023-02-16T14:40:58;100175.59;;;12.32;36.50
7966;BME280;4028;43.272;26.932;2023-02-16T14:43:40;100173.91;;;12.31;36.70
7966;BME280;4028;43.272;26.932;2023-02-16T15:00:14;100170.13;;;11.92;37.80
7966;BME280;4028;43.272;26.932;2023-02-16T15:05:42;100180.28;;;11.76;38.08
7966;BME280;4028;43.272;26.932;2023-02-16T15:08:19;100175.03;;;11.64;38.87
7966;BME280;4028;43.272;26.932;2023-02-16T15:10:49;100177.91;;;11.61;38.95
7966;BME280;4028;43.272;26.932;2023-02-16T15:13:23;100177.59;;;11.55;39.32
7966;BME280;4028;43.272;26.932;2023-02-16T15:15:53;100175.31;;;11.50;39.36
7966;BME280;4028;43.272;26.932;2023-02-16T15:18:37;100171.81;;;11.50;39.57
7966;BME280;4028;43.272;26.932;2023-02-16T15:21:05;100174.97;;;11.43;39.88
7966;BME280;4028;43.272;26.932;2023-02-16T15:23:50;100180.78;;;11.37;40.30
7966;BME280;4028;43.272;26.932;2023-02-16T15:26:19;100177.03;;;11.29;40.71
7966;BME280;4028;43.272;26.932;2023-02-16T15:28:56;100173.69;;;11.15;41.06
7966;BME280;4028;43.272;26.932;2023-02-16T15:31:32;100172.25;;;11.00;42.12
7966;BME280;4028;43.272;26.932;2023-02-16T15:34:01;100177.19;;;10.93;42.22
7966;BME280;4028;43.272;26.932;2023-02-16T15:36:37;100179.22;;;10.90;42.50
7966;BME280;4028;43.272;26.932;2023-02-16T15:39:15;100172.13;;;10.79;42.81
7966;BME280;4028;43.272;26.932;2023-02-16T15:41:46;100172.88;;;10.81;42.62
7966;BME280;4028;43.272;26.932;2023-02-16T15:44:27;100175.84;;;10.54;44.23
7966;BME280;4028;43.272;26.932;2023-02-16T15:47:08;100169.47;;;10.34;45.13
7966;BME280;4028;43.272;26.932;2023-02-16T15:49:34;100173.00;;;10.22;45.44
7966;BME280;4028;43.272;26.932;2023-02-16T15:52:05;100159.72;;;10.00;46.30
7966;BME280;4028;43.272;26.932;2023-02-16T15:54:34;100158.84;;;9.88;47.38
7966;BME280;4028;43.272;26.932;2023-02-16T15:57:09;100159.88;;;9.74;47.76
7966;BME280;4028;43.272;26.932;2023-02-16T15:59:44;100157.28;;;9.61;48.33
7966;BME280;4028;43.272;26.932;2023-02-16T16:02:13;100151.50;;;9.32;49.03
7966;BME280;4028;43.272;26.932;2023-02-16T16:04:41;100146.94;;;9.34;49.44
7966;BME280;4028;43.272;26.932;2023-02-16T16:07:12;100141.84;;;9.31;49.43
7966;BME280;4028;43.272;26.932;2023-02-16T16:09:38;100141.44;;;9.37;48.45